Ohyamamaru — JG5507 — position and weather

sailwx.info

Track history (hours):
 
Tides and Currents Weather Stations Pressure Air Temp Water Temp Dewpoint Dewpoint Depression Visibility Wind Speed Wind Dir Waves Ship Positions

Ohyamamaru

Last reported at 2014-Sep-03 06:33 UTC. Time now 2014-Sep-03 07:01 UTC.
Position N 35°38' E 139°46'.

Length 36 m; draft 4.4 m.

Type: Tug. MMSI: 431001114.

Date/timePositionNaut miles runAvg speedWind from/ knotsBaromVisibWave heightAir tempDewpointWater temp
2014-Sep-03 06:33N 35°38' E 139°46'0 0.0
2014-Sep-03 05:33N 35°38' E 139°46'0 0.0
2014-Sep-03 04:33N 35°38' E 139°46'0 0.0
2014-Sep-03 03:33N 35°38' E 139°46'0 0.0
2014-Sep-03 02:33N 35°38' E 139°46'0 0.0
2014-Sep-03 01:33N 35°38' E 139°46'1 0.9
2014-Sep-03 00:34N 35°39' E 139°46'3 3.2
2014-Sep-02 23:34N 35°35' E 139°47'1 0.6
2014-Sep-02 22:34N 35°35' E 139°47'1 1.4
2014-Sep-02 21:33N 35°34' E 139°49'4 4.4
2014-Sep-02 20:33N 35°38' E 139°46'0 0.2
2014-Sep-02 19:33N 35°38' E 139°45'0 0.0
2014-Sep-02 18:33N 35°38' E 139°45'0 0.0
2014-Sep-02 17:33N 35°38' E 139°45'0 0.0
2014-Sep-02 16:33N 35°38' E 139°45'0 0.0
2014-Sep-02 15:33N 35°38' E 139°45'0 0.0
2014-Sep-02 14:33N 35°38' E 139°45'0 0.0
2014-Sep-02 13:33N 35°38' E 139°45'0 0.0
2014-Sep-02 12:33N 35°38' E 139°45'0 0.0
2014-Sep-02 11:33N 35°38' E 139°45'0 0.0
2014-Sep-02 10:33N 35°38' E 139°45'0 0.0
2014-Sep-02 09:33N 35°38' E 139°45'0 0.0
2014-Sep-02 08:33N 35°38' E 139°45'0 0.0
2014-Sep-02 07:33N 35°38' E 139°45'0 0.0
2014-Sep-02 06:33N 35°38' E 139°45'0 0.0
2014-Sep-02 05:33N 35°38' E 139°45'0 0.0
2014-Sep-02 04:34N 35°38' E 139°45'0 0.0
2014-Sep-02 03:34N 35°38' E 139°45'0 0.0
2014-Sep-02 02:33N 35°38' E 139°45'0 0.0
2014-Sep-02 01:33N 35°38' E 139°45'0 0.0
2014-Sep-02 00:33N 35°38' E 139°45'0 0.0
2014-Sep-01 23:33N 35°38' E 139°45'0 0.0
2014-Sep-01 22:33N 35°38' E 139°45'0 0.0
2014-Sep-01 21:33N 35°38' E 139°45'0 0.0
2014-Sep-01 20:34N 35°38' E 139°45'0 0.0
2014-Sep-01 19:33N 35°38' E 139°45'0 0.0
2014-Sep-01 18:33N 35°38' E 139°45'0 0.0
2014-Sep-01 17:33N 35°38' E 139°45'0 0.0
2014-Sep-01 16:34N 35°38' E 139°45'0 0.0
2014-Sep-01 15:34N 35°38' E 139°45'0 0.0
2014-Sep-01 14:34N 35°38' E 139°45'0 0.0
2014-Sep-01 13:33N 35°38' E 139°45'0 0.0
2014-Sep-01 12:33N 35°38' E 139°45'0 0.0
2014-Sep-01 11:34N 35°38' E 139°45'0 0.0
2014-Sep-01 10:33N 35°38' E 139°45'0 0.0
2014-Sep-01 09:33N 35°38' E 139°45'0 0.0
2014-Sep-01 08:33N 35°38' E 139°45'0 0.0
2014-Sep-01 07:33N 35°38' E 139°45'0 0.0
2014-Sep-01 06:34N 35°38' E 139°45'0 0.0
2014-Sep-01 05:33N 35°38' E 139°45'0 0.0
2014-Sep-01 04:33N 35°38' E 139°45'0 0.0
2014-Sep-01 03:34N 35°38' E 139°45'0 0.0
2014-Sep-01 02:34N 35°38' E 139°45'0 0.0
2014-Sep-01 01:34N 35°38' E 139°45'0 0.0
2014-Sep-01 00:33N 35°38' E 139°45'0 0.0
2014-Aug-31 23:33N 35°38' E 139°45'2 1.7
2014-Aug-31 22:33N 35°37' E 139°46'4 3.7
2014-Aug-31 21:33N 35°34' E 139°49'3 2.7
2014-Aug-31 20:33N 35°36' E 139°47'1 1.2
2014-Aug-31 19:33N 35°37' E 139°46'1 1.3
2014-Aug-31 18:33N 35°38' E 139°45'0 0.0
2014-Aug-31 17:33N 35°38' E 139°45'0 0.0
2014-Aug-31 16:33N 35°38' E 139°45'0 0.0
2014-Aug-31 15:33N 35°38' E 139°45'0 0.0
2014-Aug-31 14:33N 35°38' E 139°45'0 0.0
2014-Aug-31 13:33N 35°38' E 139°45'0 0.0
2014-Aug-31 12:33N 35°38' E 139°45'0 0.0
2014-Aug-31 11:33N 35°38' E 139°45'0 0.0
2014-Aug-31 10:33N 35°38' E 139°45'0 0.0
2014-Aug-31 09:33N 35°38' E 139°45'0 0.0
2014-Aug-31 08:33N 35°38' E 139°45'0 0.0
2014-Aug-31 07:33N 35°38' E 139°45'0 0.0
2014-Aug-31 06:33N 35°38' E 139°45'0 0.0
2014-Aug-31 05:34N 35°38' E 139°45'0 0.0
2014-Aug-31 04:33N 35°38' E 139°45'0 0.0
2014-Aug-31 03:33N 35°38' E 139°45'0 0.0
2014-Aug-31 02:33N 35°38' E 139°45'0 0.0
2014-Aug-31 01:33N 35°38' E 139°45'0 0.0
2014-Aug-31 00:33N 35°38' E 139°45'0 0.0
2014-Aug-30 23:33N 35°38' E 139°45'0 0.0
2014-Aug-30 22:33N 35°38' E 139°45'0 0.0
2014-Aug-30 21:33N 35°38' E 139°45'0 0.0
2014-Aug-30 20:33N 35°38' E 139°45'0 0.0
2014-Aug-30 19:33N 35°38' E 139°45'0 0.0
2014-Aug-30 18:33N 35°38' E 139°45'0 0.0
2014-Aug-30 17:33N 35°38' E 139°45'0 0.0
2014-Aug-30 16:33N 35°38' E 139°45'0 0.0
2014-Aug-30 15:33N 35°38' E 139°45'0 0.0
2014-Aug-30 14:33N 35°38' E 139°45'0 0.0
2014-Aug-30 13:34N 35°38' E 139°45'0 0.0
2014-Aug-30 12:34N 35°38' E 139°45'0 0.0
2014-Aug-30 11:33N 35°38' E 139°45'0 0.0
2014-Aug-30 10:33N 35°38' E 139°45'0 0.0
2014-Aug-30 09:34N 35°38' E 139°45'0 0.0
2014-Aug-30 08:34N 35°38' E 139°45'0 0.0
2014-Aug-30 07:33N 35°38' E 139°45'0 0.0
2014-Aug-30 06:34N 35°38' E 139°45'0 0.0
2014-Aug-30 05:34N 35°38' E 139°45'0 0.0
2014-Aug-30 04:33N 35°38' E 139°45'0 0.0
2014-Aug-30 03:33N 35°38' E 139°45'0 0.0
2014-Aug-30 02:34N 35°38' E 139°45'0 0.0
2014-Aug-30 01:33N 35°38' E 139°45'0 0.0
2014-Aug-30 00:33N 35°38' E 139°45'0 0.0
2014-Aug-29 23:33N 35°38' E 139°45'0 0.0
2014-Aug-29 22:33N 35°38' E 139°45'0 0.0
2014-Aug-29 21:34N 35°38' E 139°45'0 0.0
2014-Aug-29 20:33N 35°38' E 139°45'0 0.0
2014-Aug-29 19:33N 35°38' E 139°45'0 0.0
2014-Aug-29 18:34N 35°38' E 139°45'0 0.0
2014-Aug-29 17:33N 35°38' E 139°45'0 0.0
2014-Aug-29 16:33N 35°38' E 139°45'0 0.0
2014-Aug-29 15:33N 35°38' E 139°45'0 0.0
2014-Aug-29 14:33N 35°38' E 139°45'0 0.0
2014-Aug-29 13:33N 35°38' E 139°45'0 0.0
2014-Aug-29 12:33N 35°38' E 139°45'0 0.0
2014-Aug-29 11:33N 35°38' E 139°45'0 0.0
2014-Aug-29 10:33N 35°38' E 139°45'0 0.0
2014-Aug-29 09:33N 35°38' E 139°45'0 0.0
2014-Aug-29 08:33N 35°38' E 139°45'0 0.0
2014-Aug-29 07:34N 35°38' E 139°45'0 0.0
2014-Aug-29 06:33N 35°38' E 139°45'0 0.0
2014-Aug-29 05:33N 35°38' E 139°45'0 0.0
2014-Aug-29 04:33N 35°38' E 139°45'0 0.0
2014-Aug-29 03:33N 35°38' E 139°45'1 1.0
2014-Aug-29 02:33N 35°39' E 139°47'3 3.5
2014-Aug-29 01:33N 35°35' E 139°47'0 0.2
2014-Aug-29 00:33N 35°35' E 139°47'0 0.0
2014-Aug-28 23:33N 35°35' E 139°47'1 1.0
2014-Aug-28 22:33N 35°36' E 139°48'0 0.5
2014-Aug-28 21:34N 35°36' E 139°47'3 2.8
2014-Aug-28 20:34N 35°38' E 139°46'0 0.0
2014-Aug-28 19:33N 35°38' E 139°46'0 0.0
2014-Aug-28 18:34N 35°38' E 139°46'0 0.0
2014-Aug-28 17:33N 35°38' E 139°46'0 0.0
2014-Aug-28 16:33N 35°38' E 139°46'0 0.0
2014-Aug-28 15:34N 35°38' E 139°46'0 0.0
2014-Aug-28 14:33N 35°38' E 139°46'0 0.0
2014-Aug-28 13:33N 35°38' E 139°46'0 0.0
2014-Aug-28 12:34N 35°38' E 139°46'0 0.0
2014-Aug-28 11:33N 35°38' E 139°46'0 0.5
2014-Aug-28 10:34N 35°38' E 139°46'3 3.2
2014-Aug-28 09:34N 35°35' E 139°48'0 0.2
2014-Aug-28 08:34N 35°35' E 139°48'4 3.9
2014-Aug-28 07:34N 35°38' E 139°46'0 0.0
2014-Aug-28 06:34N 35°38' E 139°46'0 0.0
2014-Aug-28 05:34N 35°38' E 139°46'0 0.0
2014-Aug-28 04:34N 35°38' E 139°46'0 0.0
2014-Aug-28 03:34N 35°38' E 139°46'0 0.0
2014-Aug-28 02:33N 35°38' E 139°46'0 0.0
2014-Aug-28 01:34N 35°38' E 139°46'0 0.0
2014-Aug-28 00:34N 35°38' E 139°46'0 0.0
2014-Aug-27 23:33N 35°38' E 139°46'1 0.9
2014-Aug-27 22:34N 35°37' E 139°46'4 4.3
2014-Aug-27 21:34N 35°34' E 139°49'4 3.9
2014-Aug-27 20:34N 35°37' E 139°46'1 1.3
2014-Aug-27 19:33N 35°38' E 139°46'0 0.0
2014-Aug-27 18:33N 35°38' E 139°46'0 0.0
2014-Aug-27 17:33N 35°38' E 139°46'0 0.0
2014-Aug-27 16:34N 35°38' E 139°46'0 0.0
2014-Aug-27 15:34N 35°38' E 139°46'0 0.0
2014-Aug-27 14:33N 35°38' E 139°46'0 0.0
2014-Aug-27 13:33N 35°38' E 139°46'0 0.0
2014-Aug-27 12:33N 35°38' E 139°46'0 0.0
2014-Aug-27 11:34N 35°38' E 139°46'0 0.0
2014-Aug-27 10:34N 35°38' E 139°46'2 1.9
2014-Aug-27 09:34N 35°36' E 139°46'4 3.6
2014-Aug-27 08:34N 35°34' E 139°49'5 5.2
2014-Aug-27 07:33N 35°38' E 139°45'0 0.0
2014-Aug-27 06:33N 35°38' E 139°45'0 0.0
2014-Aug-27 05:34N 35°38' E 139°45'0 0.0
2014-Aug-27 04:34N 35°38' E 139°45'3 3.1
2014-Aug-27 03:33N 35°35' E 139°47'3 3.2
2014-Aug-27 02:33N 35°38' E 139°45'0 0.0
2014-Aug-27 01:33N 35°38' E 139°45'0 0.0
2014-Aug-27 00:34N 35°38' E 139°45'0 0.0
2014-Aug-26 23:34N 35°38' E 139°45'0 0.0
2014-Aug-26 22:34N 35°38' E 139°45'0 0.0
2014-Aug-26 21:34N 35°38' E 139°45'0 0.0
2014-Aug-26 20:33N 35°38' E 139°45'0 0.0
2014-Aug-26 19:33N 35°38' E 139°45'0 0.0
2014-Aug-26 18:34N 35°38' E 139°45'0 0.0
2014-Aug-26 17:34N 35°38' E 139°45'0 0.0
2014-Aug-26 16:34N 35°38' E 139°45'0 0.0
2014-Aug-26 15:34N 35°38' E 139°45'0 0.0
2014-Aug-26 14:33N 35°38' E 139°45'0 0.0
2014-Aug-26 13:34N 35°38' E 139°45'0 0.0
2014-Aug-26 12:33N 35°38' E 139°45'0 0.0
2014-Aug-26 11:34N 35°38' E 139°45'2 1.8
2014-Aug-26 10:33N 35°37' E 139°47'1 1.5
2014-Aug-26 09:34N 35°35' E 139°47'0 0.5
2014-Aug-26 08:34N 35°35' E 139°48'3 3.5
2014-Aug-26 07:33N 35°38' E 139°46'0 0.3
2014-Aug-26 06:34N 35°38' E 139°45'0 0.0
2014-Aug-26 05:34N 35°38' E 139°45'0 0.0
2014-Aug-26 04:34N 35°38' E 139°45'0 0.0
2014-Aug-26 03:33N 35°38' E 139°45'0 0.0
2014-Aug-26 02:34N 35°38' E 139°45'0 0.0
2014-Aug-26 01:34N 35°38' E 139°45'0 0.0
2014-Aug-26 00:34N 35°38' E 139°45'0 0.0
2014-Aug-25 23:34N 35°38' E 139°45'0 0.0
2014-Aug-25 22:34N 35°38' E 139°45'0 0.0
2014-Aug-25 21:34N 35°38' E 139°45'0 0.0
2014-Aug-25 20:33N 35°38' E 139°45'0 0.0
2014-Aug-25 19:34N 35°38' E 139°45'0 0.0
2014-Aug-25 18:34N 35°38' E 139°45'0 0.0
2014-Aug-25 17:34N 35°38' E 139°45'0 0.0
2014-Aug-25 16:34N 35°38' E 139°45'0 0.0
2014-Aug-25 15:34N 35°38' E 139°45'0 0.0
2014-Aug-25 14:34N 35°38' E 139°45'0 0.0
2014-Aug-25 13:34N 35°38' E 139°45'0 0.0
2014-Aug-25 12:34N 35°38' E 139°45'0 0.0
2014-Aug-25 11:33N 35°38' E 139°45'0 0.0
2014-Aug-25 10:33N 35°38' E 139°45'0 0.0
2014-Aug-25 09:33N 35°38' E 139°45'0 0.0
2014-Aug-25 08:34N 35°38' E 139°45'0 0.0
2014-Aug-25 07:34N 35°38' E 139°45'0 0.0
2014-Aug-25 06:34N 35°38' E 139°45'0 0.0
2014-Aug-25 05:34N 35°38' E 139°45'0 0.0
2014-Aug-25 04:34N 35°38' E 139°45'0 0.0
2014-Aug-25 03:34N 35°38' E 139°45'0 0.0
2014-Aug-25 02:34N 35°38' E 139°45'0 0.0
2014-Aug-25 01:33N 35°38' E 139°45'0 0.0
2014-Aug-25 00:34N 35°38' E 139°45'0 0.0
2014-Aug-24 23:34N 35°38' E 139°45'0 0.0
2014-Aug-24 22:34N 35°38' E 139°45'0 0.0
2014-Aug-24 21:34N 35°38' E 139°45'0 0.0
2014-Aug-24 20:34N 35°38' E 139°45'0 0.0
2014-Aug-24 19:33N 35°38' E 139°45'0 0.0
2014-Aug-24 18:33N 35°38' E 139°45'0 0.0
2014-Aug-24 17:33N 35°38' E 139°45'0 0.5
2014-Aug-24 16:33N 35°38' E 139°46'1 0.5
2014-Aug-24 15:34N 35°37' E 139°46'1 1.0
2014-Aug-24 14:33N 35°38' E 139°45'0 0.0
2014-Aug-24 13:33N 35°38' E 139°45'0 0.0
2014-Aug-24 12:34N 35°38' E 139°45'0 0.0
2014-Aug-24 11:33N 35°38' E 139°45'0 0.0
2014-Aug-24 10:34N 35°38' E 139°45'3 3.4
2014-Aug-24 09:34N 35°35' E 139°48'1 1.0
2014-Aug-24 08:33N 35°36' E 139°47'2 2.4
2014-Aug-24 07:34N 35°38' E 139°45'0 0.0
2014-Aug-24 06:34N 35°38' E 139°45'  
Track history (hours):
 
Tides and Currents Weather Stations Pressure Air Temp Water Temp Dewpoint Dewpoint Depression Visibility Wind Speed Wind Dir Waves Ship Positions

Ohyamamaru

Last reported at 2014-Sep-03 06:33 UTC. Time now 2014-Sep-03 07:01 UTC.
Position N 35°38' E 139°46'.

Length 36 m; draft 4.4 m.

Type: Tug. MMSI: 431001114.

Date/timePositionNaut miles runAvg speedWind from/ knotsBaromVisibWave heightAir tempDewpointWater temp
2014-Sep-03 06:33N 35°38' E 139°46'0 0.0
2014-Sep-03 05:33N 35°38' E 139°46'0 0.0
2014-Sep-03 04:33N 35°38' E 139°46'0 0.0
2014-Sep-03 03:33N 35°38' E 139°46'0 0.0
2014-Sep-03 02:33N 35°38' E 139°46'0 0.0
2014-Sep-03 01:33N 35°38' E 139°46'1 0.9
2014-Sep-03 00:34N 35°39' E 139°46'3 3.2
2014-Sep-02 23:34N 35°35' E 139°47'1 0.6
2014-Sep-02 22:34N 35°35' E 139°47'1 1.4
2014-Sep-02 21:33N 35°34' E 139°49'4 4.4
2014-Sep-02 20:33N 35°38' E 139°46'0 0.2
2014-Sep-02 19:33N 35°38' E 139°45'0 0.0
2014-Sep-02 18:33N 35°38' E 139°45'0 0.0
2014-Sep-02 17:33N 35°38' E 139°45'0 0.0
2014-Sep-02 16:33N 35°38' E 139°45'0 0.0
2014-Sep-02 15:33N 35°38' E 139°45'0 0.0
2014-Sep-02 14:33N 35°38' E 139°45'0 0.0
2014-Sep-02 13:33N 35°38' E 139°45'0 0.0
2014-Sep-02 12:33N 35°38' E 139°45'0 0.0
2014-Sep-02 11:33N 35°38' E 139°45'0 0.0
2014-Sep-02 10:33N 35°38' E 139°45'0 0.0
2014-Sep-02 09:33N 35°38' E 139°45'0 0.0
2014-Sep-02 08:33N 35°38' E 139°45'0 0.0
2014-Sep-02 07:33N 35°38' E 139°45'0 0.0
2014-Sep-02 06:33N 35°38' E 139°45'0 0.0
2014-Sep-02 05:33N 35°38' E 139°45'0 0.0
2014-Sep-02 04:34N 35°38' E 139°45'0 0.0
2014-Sep-02 03:34N 35°38' E 139°45'0 0.0
2014-Sep-02 02:33N 35°38' E 139°45'0 0.0
2014-Sep-02 01:33N 35°38' E 139°45'0 0.0
2014-Sep-02 00:33N 35°38' E 139°45'0 0.0
2014-Sep-01 23:33N 35°38' E 139°45'0 0.0
2014-Sep-01 22:33N 35°38' E 139°45'0 0.0
2014-Sep-01 21:33N 35°38' E 139°45'0 0.0
2014-Sep-01 20:34N 35°38' E 139°45'0 0.0
2014-Sep-01 19:33N 35°38' E 139°45'0 0.0
2014-Sep-01 18:33N 35°38' E 139°45'0 0.0
2014-Sep-01 17:33N 35°38' E 139°45'0 0.0
2014-Sep-01 16:34N 35°38' E 139°45'0 0.0
2014-Sep-01 15:34N 35°38' E 139°45'0 0.0
2014-Sep-01 14:34N 35°38' E 139°45'0 0.0
2014-Sep-01 13:33N 35°38' E 139°45'0 0.0
2014-Sep-01 12:33N 35°38' E 139°45'0 0.0
2014-Sep-01 11:34N 35°38' E 139°45'0 0.0
2014-Sep-01 10:33N 35°38' E 139°45'0 0.0
2014-Sep-01 09:33N 35°38' E 139°45'0 0.0
2014-Sep-01 08:33N 35°38' E 139°45'0 0.0
2014-Sep-01 07:33N 35°38' E 139°45'0 0.0
2014-Sep-01 06:34N 35°38' E 139°45'0 0.0
2014-Sep-01 05:33N 35°38' E 139°45'0 0.0
2014-Sep-01 04:33N 35°38' E 139°45'0 0.0
2014-Sep-01 03:34N 35°38' E 139°45'0 0.0
2014-Sep-01 02:34N 35°38' E 139°45'0 0.0
2014-Sep-01 01:34N 35°38' E 139°45'0 0.0
2014-Sep-01 00:33N 35°38' E 139°45'0 0.0
2014-Aug-31 23:33N 35°38' E 139°45'2 1.7
2014-Aug-31 22:33N 35°37' E 139°46'4 3.7
2014-Aug-31 21:33N 35°34' E 139°49'3 2.7
2014-Aug-31 20:33N 35°36' E 139°47'1 1.2
2014-Aug-31 19:33N 35°37' E 139°46'1 1.3
2014-Aug-31 18:33N 35°38' E 139°45'0 0.0
2014-Aug-31 17:33N 35°38' E 139°45'0 0.0
2014-Aug-31 16:33N 35°38' E 139°45'0 0.0
2014-Aug-31 15:33N 35°38' E 139°45'0 0.0
2014-Aug-31 14:33N 35°38' E 139°45'0 0.0
2014-Aug-31 13:33N 35°38' E 139°45'0 0.0
2014-Aug-31 12:33N 35°38' E 139°45'0 0.0
2014-Aug-31 11:33N 35°38' E 139°45'0 0.0
2014-Aug-31 10:33N 35°38' E 139°45'0 0.0
2014-Aug-31 09:33N 35°38' E 139°45'0 0.0
2014-Aug-31 08:33N 35°38' E 139°45'0 0.0
2014-Aug-31 07:33N 35°38' E 139°45'0 0.0
2014-Aug-31 06:33N 35°38' E 139°45'0 0.0
2014-Aug-31 05:34N 35°38' E 139°45'0 0.0
2014-Aug-31 04:33N 35°38' E 139°45'0 0.0
2014-Aug-31 03:33N 35°38' E 139°45'0 0.0
2014-Aug-31 02:33N 35°38' E 139°45'0 0.0
2014-Aug-31 01:33N 35°38' E 139°45'0 0.0
2014-Aug-31 00:33N 35°38' E 139°45'0 0.0
2014-Aug-30 23:33N 35°38' E 139°45'0 0.0
2014-Aug-30 22:33N 35°38' E 139°45'0 0.0
2014-Aug-30 21:33N 35°38' E 139°45'0 0.0
2014-Aug-30 20:33N 35°38' E 139°45'0 0.0
2014-Aug-30 19:33N 35°38' E 139°45'0 0.0
2014-Aug-30 18:33N 35°38' E 139°45'0 0.0
2014-Aug-30 17:33N 35°38' E 139°45'0 0.0
2014-Aug-30 16:33N 35°38' E 139°45'0 0.0
2014-Aug-30 15:33N 35°38' E 139°45'0 0.0
2014-Aug-30 14:33N 35°38' E 139°45'0 0.0
2014-Aug-30 13:34N 35°38' E 139°45'0 0.0
2014-Aug-30 12:34N 35°38' E 139°45'0 0.0
2014-Aug-30 11:33N 35°38' E 139°45'0 0.0
2014-Aug-30 10:33N 35°38' E 139°45'0 0.0
2014-Aug-30 09:34N 35°38' E 139°45'0 0.0
2014-Aug-30 08:34N 35°38' E 139°45'0 0.0
2014-Aug-30 07:33N 35°38' E 139°45'0 0.0
2014-Aug-30 06:34N 35°38' E 139°45'0 0.0
2014-Aug-30 05:34N 35°38' E 139°45'0 0.0
2014-Aug-30 04:33N 35°38' E 139°45'0 0.0
2014-Aug-30 03:33N 35°38' E 139°45'0 0.0
2014-Aug-30 02:34N 35°38' E 139°45'0 0.0
2014-Aug-30 01:33N 35°38' E 139°45'0 0.0
2014-Aug-30 00:33N 35°38' E 139°45'0 0.0
2014-Aug-29 23:33N 35°38' E 139°45'0 0.0
2014-Aug-29 22:33N 35°38' E 139°45'0 0.0
2014-Aug-29 21:34N 35°38' E 139°45'0 0.0
2014-Aug-29 20:33N 35°38' E 139°45'0 0.0
2014-Aug-29 19:33N 35°38' E 139°45'0 0.0
2014-Aug-29 18:34N 35°38' E 139°45'0 0.0
2014-Aug-29 17:33N 35°38' E 139°45'0 0.0
2014-Aug-29 16:33N 35°38' E 139°45'0 0.0
2014-Aug-29 15:33N 35°38' E 139°45'0 0.0
2014-Aug-29 14:33N 35°38' E 139°45'0 0.0
2014-Aug-29 13:33N 35°38' E 139°45'0 0.0
2014-Aug-29 12:33N 35°38' E 139°45'0 0.0
2014-Aug-29 11:33N 35°38' E 139°45'0 0.0
2014-Aug-29 10:33N 35°38' E 139°45'0 0.0
2014-Aug-29 09:33N 35°38' E 139°45'0 0.0
2014-Aug-29 08:33N 35°38' E 139°45'0 0.0
2014-Aug-29 07:34N 35°38' E 139°45'0 0.0
2014-Aug-29 06:33N 35°38' E 139°45'0 0.0
2014-Aug-29 05:33N 35°38' E 139°45'0 0.0
2014-Aug-29 04:33N 35°38' E 139°45'0 0.0
2014-Aug-29 03:33N 35°38' E 139°45'1 1.0
2014-Aug-29 02:33N 35°39' E 139°47'3 3.5
2014-Aug-29 01:33N 35°35' E 139°47'0 0.2
2014-Aug-29 00:33N 35°35' E 139°47'0 0.0
2014-Aug-28 23:33N 35°35' E 139°47'1 1.0
2014-Aug-28 22:33N 35°36' E 139°48'0 0.5
2014-Aug-28 21:34N 35°36' E 139°47'3 2.8
2014-Aug-28 20:34N 35°38' E 139°46'0 0.0
2014-Aug-28 19:33N 35°38' E 139°46'0 0.0
2014-Aug-28 18:34N 35°38' E 139°46'0 0.0
2014-Aug-28 17:33N 35°38' E 139°46'0 0.0
2014-Aug-28 16:33N 35°38' E 139°46'0 0.0
2014-Aug-28 15:34N 35°38' E 139°46'0 0.0
2014-Aug-28 14:33N 35°38' E 139°46'0 0.0
2014-Aug-28 13:33N 35°38' E 139°46'0 0.0
2014-Aug-28 12:34N 35°38' E 139°46'0 0.0
2014-Aug-28 11:33N 35°38' E 139°46'0 0.5
2014-Aug-28 10:34N 35°38' E 139°46'3 3.2
2014-Aug-28 09:34N 35°35' E 139°48'0 0.2
2014-Aug-28 08:34N 35°35' E 139°48'4 3.9
2014-Aug-28 07:34N 35°38' E 139°46'0 0.0
2014-Aug-28 06:34N 35°38' E 139°46'0 0.0
2014-Aug-28 05:34N 35°38' E 139°46'0 0.0
2014-Aug-28 04:34N 35°38' E 139°46'0 0.0
2014-Aug-28 03:34N 35°38' E 139°46'0 0.0
2014-Aug-28 02:33N 35°38' E 139°46'0 0.0
2014-Aug-28 01:34N 35°38' E 139°46'0 0.0
2014-Aug-28 00:34N 35°38' E 139°46'0 0.0
2014-Aug-27 23:33N 35°38' E 139°46'1 0.9
2014-Aug-27 22:34N 35°37' E 139°46'4 4.3
2014-Aug-27 21:34N 35°34' E 139°49'4 3.9
2014-Aug-27 20:34N 35°37' E 139°46'1 1.3
2014-Aug-27 19:33N 35°38' E 139°46'0 0.0
2014-Aug-27 18:33N 35°38' E 139°46'0 0.0
2014-Aug-27 17:33N 35°38' E 139°46'0 0.0
2014-Aug-27 16:34N 35°38' E 139°46'0 0.0
2014-Aug-27 15:34N 35°38' E 139°46'0 0.0
2014-Aug-27 14:33N 35°38' E 139°46'0 0.0
2014-Aug-27 13:33N 35°38' E 139°46'0 0.0
2014-Aug-27 12:33N 35°38' E 139°46'0 0.0
2014-Aug-27 11:34N 35°38' E 139°46'0 0.0
2014-Aug-27 10:34N 35°38' E 139°46'2 1.9
2014-Aug-27 09:34N 35°36' E 139°46'4 3.6
2014-Aug-27 08:34N 35°34' E 139°49'5 5.2
2014-Aug-27 07:33N 35°38' E 139°45'0 0.0
2014-Aug-27 06:33N 35°38' E 139°45'0 0.0
2014-Aug-27 05:34N 35°38' E 139°45'0 0.0
2014-Aug-27 04:34N 35°38' E 139°45'3 3.1
2014-Aug-27 03:33N 35°35' E 139°47'3 3.2
2014-Aug-27 02:33N 35°38' E 139°45'0 0.0
2014-Aug-27 01:33N 35°38' E 139°45'0 0.0
2014-Aug-27 00:34N 35°38' E 139°45'0 0.0
2014-Aug-26 23:34N 35°38' E 139°45'0 0.0
2014-Aug-26 22:34N 35°38' E 139°45'0 0.0
2014-Aug-26 21:34N 35°38' E 139°45'0 0.0
2014-Aug-26 20:33N 35°38' E 139°45'0 0.0
2014-Aug-26 19:33N 35°38' E 139°45'0 0.0
2014-Aug-26 18:34N 35°38' E 139°45'0 0.0
2014-Aug-26 17:34N 35°38' E 139°45'0 0.0
2014-Aug-26 16:34N 35°38' E 139°45'0 0.0
2014-Aug-26 15:34N 35°38' E 139°45'0 0.0
2014-Aug-26 14:33N 35°38' E 139°45'0 0.0
2014-Aug-26 13:34N 35°38' E 139°45'0 0.0
2014-Aug-26 12:33N 35°38' E 139°45'0 0.0
2014-Aug-26 11:34N 35°38' E 139°45'2 1.8
2014-Aug-26 10:33N 35°37' E 139°47'1 1.5
2014-Aug-26 09:34N 35°35' E 139°47'0 0.5
2014-Aug-26 08:34N 35°35' E 139°48'3 3.5
2014-Aug-26 07:33N 35°38' E 139°46'0 0.3
2014-Aug-26 06:34N 35°38' E 139°45'0 0.0
2014-Aug-26 05:34N 35°38' E 139°45'0 0.0
2014-Aug-26 04:34N 35°38' E 139°45'0 0.0
2014-Aug-26 03:33N 35°38' E 139°45'0 0.0
2014-Aug-26 02:34N 35°38' E 139°45'0 0.0
2014-Aug-26 01:34N 35°38' E 139°45'0 0.0
2014-Aug-26 00:34N 35°38' E 139°45'0 0.0
2014-Aug-25 23:34N 35°38' E 139°45'0 0.0
2014-Aug-25 22:34N 35°38' E 139°45'0 0.0
2014-Aug-25 21:34N 35°38' E 139°45'0 0.0
2014-Aug-25 20:33N 35°38' E 139°45'0 0.0
2014-Aug-25 19:34N 35°38' E 139°45'0 0.0
2014-Aug-25 18:34N 35°38' E 139°45'0 0.0
2014-Aug-25 17:34N 35°38' E 139°45'0 0.0
2014-Aug-25 16:34N 35°38' E 139°45'0 0.0
2014-Aug-25 15:34N 35°38' E 139°45'0 0.0
2014-Aug-25 14:34N 35°38' E 139°45'0 0.0
2014-Aug-25 13:34N 35°38' E 139°45'0 0.0
2014-Aug-25 12:34N 35°38' E 139°45'0 0.0
2014-Aug-25 11:33N 35°38' E 139°45'0 0.0
2014-Aug-25 10:33N 35°38' E 139°45'0 0.0
2014-Aug-25 09:33N 35°38' E 139°45'0 0.0
2014-Aug-25 08:34N 35°38' E 139°45'0 0.0
2014-Aug-25 07:34N 35°38' E 139°45'0 0.0
2014-Aug-25 06:34N 35°38' E 139°45'0 0.0
2014-Aug-25 05:34N 35°38' E 139°45'0 0.0
2014-Aug-25 04:34N 35°38' E 139°45'0 0.0
2014-Aug-25 03:34N 35°38' E 139°45'0 0.0
2014-Aug-25 02:34N 35°38' E 139°45'0 0.0
2014-Aug-25 01:33N 35°38' E 139°45'0 0.0
2014-Aug-25 00:34N 35°38' E 139°45'0 0.0
2014-Aug-24 23:34N 35°38' E 139°45'0 0.0
2014-Aug-24 22:34N 35°38' E 139°45'0 0.0
2014-Aug-24 21:34N 35°38' E 139°45'0 0.0
2014-Aug-24 20:34N 35°38' E 139°45'0 0.0
2014-Aug-24 19:33N 35°38' E 139°45'0 0.0
2014-Aug-24 18:33N 35°38' E 139°45'0 0.0
2014-Aug-24 17:33N 35°38' E 139°45'0 0.5
2014-Aug-24 16:33N 35°38' E 139°46'1 0.5
2014-Aug-24 15:34N 35°37' E 139°46'1 1.0
2014-Aug-24 14:33N 35°38' E 139°45'0 0.0
2014-Aug-24 13:33N 35°38' E 139°45'0 0.0
2014-Aug-24 12:34N 35°38' E 139°45'0 0.0
2014-Aug-24 11:33N 35°38' E 139°45'0 0.0
2014-Aug-24 10:34N 35°38' E 139°45'3 3.4
2014-Aug-24 09:34N 35°35' E 139°48'1 1.0
2014-Aug-24 08:33N 35°36' E 139°47'2 2.4
2014-Aug-24 07:34N 35°38' E 139°45'0 0.0
2014-Aug-24 06:34N 35°38' E 139°45'  

Dump ship's entire track history